createdAt,value
2023-03-28T00:02:07.784Z,23.92
2023-03-28T00:04:37.531Z,14.07
2023-03-28T00:07:06.609Z,19.17
2023-03-28T00:09:34.856Z,28.95
2023-03-28T00:12:02.864Z,16.15
2023-03-28T00:14:31.258Z,18.30
2023-03-28T00:17:01.954Z,61.40
2023-03-28T00:19:33.093Z,19.08
2023-03-28T00:22:01.608Z,15.85
2023-03-28T00:24:29.577Z,16.58
2023-03-28T00:27:00.473Z,16.83
2023-03-28T00:29:30.151Z,16.35
2023-03-28T00:31:58.500Z,15.77
2023-03-28T00:34:26.843Z,16.50
2023-03-28T00:36:56.263Z,16.17
2023-03-28T00:39:26.496Z,16.65
2023-03-28T00:41:55.496Z,21.15
2023-03-28T00:44:45.489Z,22.58
2023-03-28T00:47:25.598Z,20.58
2023-03-28T00:49:58.802Z,18.05
2023-03-28T00:52:32.219Z,24.23
2023-03-28T00:55:01.539Z,24.63
2023-03-28T00:57:30.176Z,18.90
2023-03-28T00:59:58.503Z,21.48
2023-03-28T01:02:27.091Z,20.20
2023-03-28T01:04:59.418Z,26.83
2023-03-28T01:07:33.451Z,20.75
2023-03-28T01:10:04.004Z,21.88
2023-03-28T01:12:34.460Z,21.40
2023-03-28T01:15:04.282Z,27.30
2023-03-28T01:17:42.797Z,16.65
2023-03-28T01:20:29.512Z,17.00
2023-03-28T01:23:38.331Z,17.60
2023-03-28T01:26:37.457Z,19.67
2023-03-28T01:30:01.055Z,19.85
2023-03-28T01:33:26.610Z,19.85
2023-03-28T01:36:33.963Z,25.48
2023-03-28T01:39:09.406Z,21.30
2023-03-28T01:41:46.921Z,19.67
2023-03-28T01:44:25.438Z,23.27
2023-03-28T01:47:01.471Z,15.52
2023-03-28T01:49:35.588Z,15.52
2023-03-28T01:52:10.097Z,22.85
2023-03-28T01:54:45.953Z,18.15
2023-03-28T01:57:21.492Z,20.40
2023-03-28T01:59:54.313Z,25.60
2023-03-28T02:02:31.354Z,19.50
2023-03-28T02:05:25.004Z,15.60
2023-03-28T02:07:54.665Z,23.10
2023-03-28T02:10:35.899Z,22.20
2023-03-28T02:13:18.785Z,21.70
2023-03-28T02:15:53.641Z,17.80
2023-03-28T02:18:34.466Z,13.85
2023-03-28T02:21:24.436Z,17.98
2023-03-28T02:24:09.793Z,18.00
2023-03-28T02:27:10.976Z,21.73
2023-03-28T02:29:49.358Z,23.08
2023-03-28T02:32:21.912Z,16.45
2023-03-28T02:34:53.417Z,21.45
2023-03-28T02:37:33.905Z,20.02
2023-03-28T02:40:15.969Z,19.13
2023-03-28T02:43:16.718Z,22.13
2023-03-28T02:46:10.121Z,23.20
2023-03-28T02:48:54.120Z,19.08
2023-03-28T02:51:31.784Z,18.55
2023-03-28T02:54:13.189Z,42.13
2023-03-28T02:56:51.038Z,17.05
2023-03-28T02:59:49.498Z,16.73
2023-03-28T03:02:19.133Z,19.38
2023-03-28T03:04:47.577Z,16.02
2023-03-28T03:07:17.982Z,19.83
2023-03-28T03:09:46.697Z,16.58
2023-03-28T03:12:14.933Z,15.52
2023-03-28T03:14:44.269Z,15.27
2023-03-28T03:17:32.396Z,18.05
2023-03-28T03:20:06.576Z,21.02
2023-03-28T03:22:39.799Z,17.15
2023-03-28T03:25:09.331Z,13.57
2023-03-28T03:27:55.917Z,12.95
2023-03-28T03:30:24.599Z,15.45
2023-03-28T03:33:16.900Z,22.30
2023-03-28T03:35:47.813Z,20.17
2023-03-28T03:38:18.134Z,19.85
2023-03-28T03:40:46.196Z,22.08
2023-03-28T03:43:15.193Z,16.58
2023-03-28T03:45:45.936Z,21.67
2023-03-28T03:48:15.533Z,22.02
2023-03-28T03:50:43.734Z,20.25
2023-03-28T03:53:15.803Z,20.35
2023-03-28T03:56:05.125Z,19.67
2023-03-28T03:58:51.353Z,79.13
2023-03-28T04:03:57.122Z,33.30
2023-03-28T04:06:33.923Z,50.40
2023-03-28T04:09:07.702Z,54.08
2023-03-28T04:11:57.601Z,65.18
2023-03-28T04:14:26.017Z,65.85
2023-03-28T04:17:06.933Z,64.53
2023-03-28T04:19:40.163Z,67.15
2023-03-28T04:22:08.419Z,69.18
2023-03-28T04:24:37.186Z,75.85
2023-03-28T04:27:31.880Z,69.95
2023-03-28T04:30:00.605Z,57.42
2023-03-28T04:33:06.916Z,40.97
2023-03-28T04:35:41.138Z,80.85
2023-03-28T04:38:09.747Z,72.00
2023-03-28T04:40:57.781Z,73.90
2023-03-28T04:43:48.852Z,70.25
2023-03-28T04:46:17.593Z,78.75
2023-03-28T04:48:47.177Z,82.35
2023-03-28T04:51:20.983Z,67.20
2023-03-28T04:53:49.032Z,71.90
2023-03-28T04:56:35.397Z,70.28
2023-03-28T04:59:03.613Z,75.10
2023-03-28T05:01:33.112Z,77.22
2023-03-28T05:04:23.610Z,76.40
2023-03-28T05:06:53.081Z,49.95
2023-03-28T05:09:22.601Z,15.63
2023-03-28T05:14:44.834Z,26.30
2023-03-28T05:17:16.568Z,57.17
2023-03-28T05:19:57.887Z,49.92
2023-03-28T05:22:28.601Z,42.35
2023-03-28T05:25:00.713Z,59.47
2023-03-28T05:27:28.893Z,63.33
2023-03-28T05:29:58.274Z,58.17
2023-03-28T05:32:28.409Z,66.55
2023-03-28T05:34:56.980Z,58.92
2023-03-28T05:37:28.787Z,62.47
2023-03-28T05:39:57.030Z,56.92
2023-03-28T05:42:25.016Z,59.95
2023-03-28T05:44:53.052Z,58.22
2023-03-28T05:47:41.644Z,58.38
2023-03-28T05:50:11.241Z,60.90
2023-03-28T05:52:40.050Z,52.90
2023-03-28T05:55:08.833Z,46.40
2023-03-28T06:00:13.894Z,67.97
2023-03-28T06:05:38.760Z,15.70
2023-03-28T06:08:18.753Z,53.28
2023-03-28T06:10:47.024Z,61.20
2023-03-28T06:13:41.226Z,65.07
2023-03-28T06:16:11.463Z,63.72
2023-03-28T06:18:39.474Z,51.47
2023-03-28T06:21:09.203Z,51.10
2023-03-28T06:23:37.236Z,62.17
2023-03-28T06:26:05.461Z,61.90
2023-03-28T06:28:42.784Z,48.35
2023-03-28T06:31:19.727Z,68.07
2023-03-28T06:33:48.217Z,62.10
2023-03-28T06:36:20.874Z,63.28
2023-03-28T06:38:50.336Z,61.13
2023-03-28T06:41:18.495Z,66.13
2023-03-28T06:43:47.153Z,62.38
2023-03-28T06:46:50.472Z,60.47
2023-03-28T06:49:18.895Z,67.65
2023-03-28T06:52:24.669Z,68.10
2023-03-28T06:54:54.308Z,62.38
2023-03-28T06:57:22.631Z,67.00
2023-03-28T06:59:54.978Z,62.42
2023-03-28T07:02:30.989Z,61.28
2023-03-28T07:05:11.338Z,67.20
2023-03-28T07:07:41.207Z,66.10
2023-03-28T07:10:10.326Z,63.00
2023-03-28T07:12:39.222Z,62.95
2023-03-28T07:15:09.160Z,66.60
2023-03-28T07:17:37.376Z,62.65
2023-03-28T07:20:06.438Z,51.28
2023-03-28T07:22:34.572Z,61.47
2023-03-28T07:25:04.043Z,60.17
2023-03-28T07:27:32.722Z,60.10
2023-03-28T07:30:00.905Z,45.28
2023-03-28T07:32:35.796Z,62.95
2023-03-28T07:35:08.995Z,61.10
2023-03-28T07:37:47.305Z,62.55
2023-03-28T07:40:36.414Z,52.70
2023-03-28T07:43:05.031Z,59.67
2023-03-28T07:45:33.127Z,61.72
2023-03-28T07:48:01.305Z,61.05
2023-03-28T07:50:29.930Z,63.13
2023-03-28T07:52:59.180Z,62.95
2023-03-28T07:55:30.360Z,67.45
2023-03-28T07:58:00.276Z,58.08
2023-03-28T08:00:32.192Z,63.03
2023-03-28T08:03:19.458Z,71.43
2023-03-28T08:05:52.082Z,64.90
2023-03-28T08:08:22.612Z,66.75
2023-03-28T08:11:13.300Z,69.95
2023-03-28T08:13:42.635Z,71.00
2023-03-28T08:16:19.670Z,64.38
2023-03-28T08:18:56.987Z,64.22
2023-03-28T08:21:31.138Z,68.68
2023-03-28T08:23:59.268Z,58.20
2023-03-28T08:26:39.557Z,63.08
2023-03-28T08:29:10.217Z,63.22
2023-03-28T08:31:39.585Z,62.50
2023-03-28T08:34:13.051Z,68.80
2023-03-28T08:36:43.277Z,50.05
2023-03-28T08:39:24.382Z,64.93
2023-03-28T08:42:09.387Z,62.13
2023-03-28T08:44:51.963Z,64.45
2023-03-28T08:47:25.338Z,63.95
2023-03-28T08:49:57.831Z,64.00
2023-03-28T08:52:27.048Z,60.70
2023-03-28T08:55:01.301Z,62.70
2023-03-28T08:57:33.215Z,62.65
2023-03-28T09:00:12.781Z,62.60
2023-03-28T09:02:41.223Z,66.38
2023-03-28T09:05:23.189Z,66.45
2023-03-28T09:08:04.144Z,64.60
2023-03-28T09:10:40.994Z,67.43
2023-03-28T09:13:34.304Z,64.68
2023-03-28T09:16:23.900Z,62.53
2023-03-28T09:19:37.075Z,62.95
2023-03-28T09:22:55.254Z,67.22
2023-03-28T09:25:38.883Z,64.70
2023-03-28T09:28:19.529Z,65.97
2023-03-28T09:30:51.627Z,65.00
2023-03-28T10:19:55.274Z,15.33
2023-03-28T10:22:29.127Z,23.30
2023-03-28T10:24:59.626Z,19.05
2023-03-28T10:27:32.716Z,65.82
2023-03-28T10:30:12.362Z,54.47
2023-03-28T10:32:41.077Z,25.15
2023-03-28T10:35:27.996Z,20.80
2023-03-28T10:38:05.609Z,17.25
2023-03-28T10:41:12.611Z,31.25
2023-03-28T10:44:18.923Z,19.70
2023-03-28T10:47:18.993Z,15.80
2023-03-28T10:49:56.643Z,16.83
2023-03-28T10:52:37.344Z,20.58
2023-03-28T10:55:14.984Z,29.50
2023-03-28T11:00:35.312Z,69.00
2023-03-28T11:03:19.607Z,66.43
2023-03-28T11:06:08.188Z,64.00
2023-03-28T11:08:48.586Z,72.85
2023-03-28T11:11:36.749Z,64.07
2023-03-28T11:14:15.509Z,68.07
2023-03-28T11:16:54.613Z,70.28
2023-03-28T11:19:51.105Z,69.00
2023-03-28T11:22:30.775Z,63.47
2023-03-28T11:25:07.403Z,68.75
2023-03-28T11:28:01.898Z,66.28
2023-03-28T11:30:38.039Z,67.25
2023-03-28T11:33:26.041Z,65.18
2023-03-28T11:36:04.755Z,69.93
2023-03-28T11:38:36.292Z,69.55
2023-03-28T11:41:10.791Z,66.45
2023-03-28T11:44:17.106Z,73.20
2023-03-28T11:46:51.287Z,66.18
2023-03-28T11:49:26.077Z,65.50
2023-03-28T11:52:00.612Z,67.05
2023-03-28T11:54:36.574Z,69.45
2023-03-28T11:57:12.645Z,69.43
2023-03-28T11:59:52.796Z,65.63
2023-03-28T12:02:41.352Z,67.95
2023-03-28T12:05:21.004Z,72.45
2023-03-28T12:07:55.562Z,68.13
2023-03-28T12:10:35.885Z,65.95
2023-03-28T12:13:14.225Z,68.78
2023-03-28T12:15:57.158Z,67.28
2023-03-28T12:18:32.263Z,67.15
2023-03-28T12:21:08.632Z,69.28
2023-03-28T12:23:57.450Z,67.25
2023-03-28T12:26:37.290Z,72.28
2023-03-28T12:29:13.809Z,71.57
2023-03-28T12:31:48.018Z,73.10
2023-03-28T12:34:28.736Z,65.53
2023-03-28T12:37:25.733Z,67.53
2023-03-28T12:40:00.270Z,70.30
2023-03-28T12:42:31.434Z,72.25
2023-03-28T12:45:03.682Z,66.90
2023-03-28T12:47:37.461Z,68.50
2023-03-28T12:50:09.063Z,70.40
2023-03-28T13:37:49.104Z,16.17
2023-03-28T13:40:45.524Z,17.05
2023-03-28T13:43:25.035Z,16.15
2023-03-28T13:45:55.928Z,17.55
2023-03-28T13:50:54.968Z,28.30
2023-03-28T13:53:28.239Z,28.02
2023-03-28T14:08:28.330Z,91.43
2023-03-28T16:54:21.591Z,74.53
2023-03-28T16:56:49.881Z,69.45
2023-03-28T16:59:18.064Z,80.32
2023-03-28T17:01:47.688Z,75.32
2023-03-28T17:12:25.156Z,66.28
2023-03-28T17:14:53.514Z,71.82
2023-03-28T17:17:21.538Z,77.07
2023-03-28T17:19:50.369Z,75.65
2023-03-28T17:22:18.665Z,99.50
2023-03-28T17:24:46.963Z,94.90
2023-03-28T17:27:15.896Z,77.05
2023-03-28T17:29:45.330Z,76.53
2023-03-28T17:32:13.659Z,115.38
